Time;durP1;ratioP1;P1;durP2;ratioP2;P2;SDS_P1;SDS_P2;PMS_P1;PMS_P2;Temp;Humidity;BMP_temperature;BMP_pressure;BME280_temperature;BME280_humidity;BME280_pressure;Samples;Min_cycle;Max_cycle;Signal;HPM_P1;HPM_P2
2021/04/01 00:00:15;;;;;;;11.60;8.07;;;9.50;99.90;;;;;;4964345;28;20445;-72
2021/04/01 00:02:42;;;;;;;9.43;7.47;;;9.60;99.90;;;;;;4967599;28;20024;-71
2021/04/01 00:05:08;;;;;;;10.35;7.47;;;9.50;99.90;;;;;;4963373;28;20034;-72
2021/04/01 00:07:34;;;;;;;11.23;7.53;;;9.30;99.90;;;;;;4960840;28;20429;-72
2021/04/01 00:10:00;;;;;;;10.88;8.18;;;9.30;99.90;;;;;;4963169;28;20154;-72
2021/04/01 00:12:26;;;;;;;12.40;8.40;;;9.20;99.90;;;;;;4967296;28;20058;-72
2021/04/01 00:14:52;;;;;;;13.82;7.57;;;9.10;99.90;;;;;;4963633;28;20060;-71
2021/04/01 00:17:18;;;;;;;12.05;7.63;;;9.20;99.90;;;;;;4960645;28;20063;-71
2021/04/01 00:19:43;;;;;;;11.43;8.07;;;9.20;99.90;;;;;;4973571;28;20026;-73
2021/04/01 00:22:09;;;;;;;10.88;7.57;;;9.20;99.90;;;;;;4972235;28;20030;-71
2021/04/01 00:24:34;;;;;;;14.00;8.10;;;9.30;99.90;;;;;;4964823;28;20043;-71
2021/04/01 00:27:00;;;;;;;12.57;8.10;;;9.30;99.90;;;;;;4960947;28;20390;-73
2021/04/01 00:29:25;;;;;;;12.00;8.02;;;9.30;99.90;;;;;;4973582;28;20158;-72
2021/04/01 00:31:51;;;;;;;14.02;8.48;;;9.40;99.90;;;;;;4972041;28;20054;-71
2021/04/01 00:34:17;;;;;;;12.05;8.23;;;9.30;99.90;;;;;;4973048;28;20037;-72
2021/04/01 00:36:42;;;;;;;13.98;9.40;;;9.20;99.90;;;;;;4968123;28;20026;-72
2021/04/01 00:39:09;;;;;;;11.32;8.50;;;9.30;99.90;;;;;;4964034;28;20097;-72
2021/04/01 00:41:34;;;;;;;12.25;7.95;;;9.20;99.90;;;;;;4960399;28;20027;-72
2021/04/01 00:44:04;;;;;;;11.55;8.18;;;9.20;99.90;;;;;;4961465;28;20500;-74
2021/04/01 00:46:30;;;;;;;15.00;9.23;;;9.40;99.90;;;;;;4966924;28;20031;-72
2021/04/01 00:48:55;;;;;;;12.45;8.57;;;9.20;99.90;;;;;;4963202;28;20081;-73
2021/04/01 00:51:21;;;;;;;14.30;8.63;;;9.10;99.90;;;;;;4968944;28;20797;-73
2021/04/01 00:53:46;;;;;;;12.05;8.35;;;8.90;99.90;;;;;;4964352;28;20030;-72
2021/04/01 00:56:12;;;;;;;11.30;7.65;;;8.70;99.90;;;;;;4972055;28;20054;-72
2021/04/01 00:58:38;;;;;;;13.43;8.18;;;8.70;99.90;;;;;;4972077;28;20022;-72
2021/04/01 01:01:28;;;;;;;11.23;8.15;;;8.70;99.90;;;;;;4958829;28;20027;-72
2021/04/01 01:03:54;;;;;;;9.45;7.35;;;8.60;99.90;;;;;;4958873;28;20437;-72
2021/04/01 01:06:20;;;;;;;10.32;7.70;;;8.50;99.90;;;;;;4968346;28;20035;-72
2021/04/01 01:08:45;;;;;;;12.90;8.05;;;8.50;99.90;;;;;;4965572;28;20027;-71
2021/04/01 01:11:11;;;;;;;8.35;7.45;;;8.50;99.90;;;;;;4972832;28;20102;-71
2021/04/01 01:13:37;;;;;;;12.02;7.80;;;8.60;99.90;;;;;;4958610;28;20401;-72
2021/04/01 01:16:03;;;;;;;11.93;8.52;;;8.50;99.90;;;;;;4966529;28;20090;-71
2021/04/01 01:18:28;;;;;;;12.63;8.43;;;8.60;99.90;;;;;;4966460;28;20096;-72
2021/04/01 01:20:58;;;;;;;14.25;8.77;;;8.50;99.90;;;;;;4959939;28;20478;-71
2021/04/01 01:23:26;;;;;;;15.23;8.43;;;8.50;99.90;;;;;;4958474;28;20030;-71
2021/04/01 01:25:55;;;;;;;10.23;8.50;;;8.40;99.90;;;;;;4972644;28;20035;-72
2021/04/01 01:28:22;;;;;;;13.10;8.75;;;8.30;99.90;;;;;;4972702;28;20129;-74
2021/04/01 01:30:48;;;;;;;10.45;7.88;;;8.00;99.90;;;;;;4963217;28;20069;-72
2021/04/01 01:33:18;;;;;;;12.25;7.80;;;8.00;99.90;;;;;;4966468;28;20053;-73
2021/04/01 01:35:44;;;;;;;12.55;8.90;;;8.10;99.90;;;;;;4953366;28;20030;-71
2021/04/01 01:38:10;;;;;;;12.98;9.13;;;8.10;99.90;;;;;;4964932;28;20146;-71
2021/04/01 01:40:37;;;;;;;13.38;8.30;;;8.10;99.90;;;;;;4962545;28;20031;-72
2021/04/01 01:43:08;;;;;;;11.27;8.50;;;7.90;99.90;;;;;;4958418;28;20038;-71
2021/04/01 01:45:34;;;;;;;11.77;9.02;;;8.00;99.90;;;;;;4961361;28;20050;-72
2021/04/01 01:48:00;;;;;;;14.27;9.45;;;8.10;99.90;;;;;;4969366;28;20481;-71
2021/04/01 01:50:29;;;;;;;13.68;9.45;;;8.00;99.90;;;;;;4974434;28;20062;-71
2021/04/01 01:52:56;;;;;;;13.45;9.50;;;8.00;99.90;;;;;;4963206;28;20023;-71
2021/04/01 01:55:21;;;;;;;12.02;8.75;;;7.90;99.90;;;;;;4964827;28;20087;-72
2021/04/01 01:57:47;;;;;;;15.32;10.05;;;7.70;99.90;;;;;;4958954;28;20117;-72
2021/04/01 02:00:21;;;;;;;13.52;9.48;;;7.70;99.90;;;;;;4966328;28;20114;-72
2021/04/01 02:02:51;;;;;;;10.95;9.20;;;7.60;99.90;;;;;;4961338;28;20030;-71
2021/04/01 02:05:17;;;;;;;11.82;8.77;;;7.70;99.90;;;;;;4962980;28;20062;-71
2021/04/01 02:07:43;;;;;;;12.55;8.23;;;7.60;99.90;;;;;;4969496;28;20077;-73
2021/04/01 02:10:08;;;;;;;11.38;8.95;;;7.60;99.90;;;;;;4968208;28;20031;-74
2021/04/01 02:12:38;;;;;;;16.38;9.90;;;7.80;99.90;;;;;;4975839;28;20393;-76
2021/04/01 02:15:04;;;;;;;11.23;9.07;;;7.90;99.90;;;;;;4975643;28;20118;-74
2021/04/01 02:17:30;;;;;;;15.30;9.82;;;8.00;99.90;;;;;;4961472;28;20022;-75
2021/04/01 02:19:57;;;;;;;13.88;9.32;;;8.10;99.90;;;;;;4962879;28;20556;-75
2021/04/01 02:22:22;;;;;;;14.68;9.38;;;7.90;99.90;;;;;;4969217;28;20135;-75
2021/04/01 02:24:48;;;;;;;16.67;9.68;;;7.80;99.90;;;;;;4966285;28;20117;-75
2021/04/01 02:27:13;;;;;;;14.50;9.98;;;7.70;99.90;;;;;;4962647;28;20049;-74
2021/04/01 02:29:39;;;;;;;14.60;9.85;;;7.50;99.90;;;;;;4975472;28;20396;-74
2021/04/01 02:32:05;;;;;;;17.42;10.45;;;7.60;99.90;;;;;;4961692;28;20486;-75
2021/04/01 02:34:31;;;;;;;14.90;9.80;;;7.70;99.90;;;;;;4961671;28;20435;-74
2021/04/01 02:36:57;;;;;;;13.75;10.25;;;7.70;99.90;;;;;;4969227;28;20023;-74
2021/04/01 02:39:22;;;;;;;13.27;9.45;;;7.70;99.90;;;;;;4967031;28;20035;-75
2021/04/01 02:41:48;;;;;;;15.63;10.15;;;7.70;99.90;;;;;;4962809;28;20477;-75
2021/04/01 02:44:13;;;;;;;14.07;9.85;;;7.70;99.90;;;;;;4974993;28;20035;-71
2021/04/01 02:46:38;;;;;;;15.30;10.45;;;7.70;99.90;;;;;;4975384;28;20090;-74
2021/04/01 02:49:04;;;;;;;13.68;10.07;;;7.70;99.90;;;;;;4975281;28;20386;-74
2021/04/01 02:51:30;;;;;;;15.98;10.23;;;7.70;99.90;;;;;;4969954;28;20572;-74
2021/04/01 02:53:55;;;;;;;14.30;9.80;;;7.60;99.90;;;;;;4967138;28;20038;-74
2021/04/01 02:56:21;;;;;;;14.73;10.32;;;7.50;99.90;;;;;;4962112;28;20126;-75
2021/04/01 02:58:46;;;;;;;12.57;9.93;;;7.40;99.90;;;;;;4975026;28;20027;-75
2021/04/01 03:01:12;;;;;;;13.27;10.60;;;7.40;99.90;;;;;;4961740;28;20030;-72
2021/04/01 03:03:41;;;;;;;11.93;9.82;;;7.40;99.90;;;;;;4962338;28;20023;-71
2021/04/01 03:06:06;;;;;;;14.07;9.98;;;7.30;99.90;;;;;;4968437;28;20367;-75
2021/04/01 03:08:32;;;;;;;14.88;10.68;;;7.10;99.90;;;;;;4967118;28;20034;-74
2021/04/01 03:10:58;;;;;;;14.90;10.15;;;7.10;99.90;;;;;;4974841;28;20031;-74
2021/04/01 03:13:25;;;;;;;14.93;10.68;;;7.20;99.90;;;;;;4963484;28;20034;-71
2021/04/01 03:15:51;;;;;;;13.30;9.63;;;7.20;99.90;;;;;;4973187;28;20439;-74
2021/04/01 03:18:18;;;;;;;14.43;9.82;;;7.40;99.90;;;;;;4974782;28;20489;-74
2021/04/01 03:20:43;;;;;;;13.68;9.93;;;7.20;99.90;;;;;;4974881;28;20026;-74
2021/04/01 03:23:09;;;;;;;17.17;10.40;;;7.20;99.90;;;;;;4974627;28;20456;-75
2021/04/01 03:25:34;;;;;;;17.10;10.75;;;7.00;99.90;;;;;;4972739;28;20030;-74
2021/04/01 03:28:01;;;;;;;15.35;10.20;;;7.00;99.90;;;;;;4974359;28;20031;-73
2021/04/01 03:30:27;;;;;;;13.90;10.23;;;7.10;99.90;;;;;;4974343;28;20030;-75
2021/04/01 03:32:53;;;;;;;15.95;9.75;;;7.20;99.90;;;;;;4962326;28;20086;-74
2021/04/01 03:35:24;;;;;;;13.82;9.93;;;7.20;99.90;;;;;;4967581;28;20030;-73
2021/04/01 03:37:56;;;;;;;16.15;11.23;;;7.20;99.90;;;;;;4963100;28;20027;-75
2021/04/01 03:40:22;;;;;;;13.60;10.02;;;7.20;99.90;;;;;;4969684;28;20421;-75
2021/04/01 03:42:48;;;;;;;17.48;11.13;;;7.10;99.90;;;;;;4972811;28;20554;-74
2021/04/01 03:45:15;;;;;;;15.88;10.55;;;7.20;99.90;;;;;;4972551;28;20035;-75
2021/04/01 03:47:43;;;;;;;17.20;10.95;;;7.30;99.90;;;;;;4974041;28;20105;-73
2021/04/01 03:50:10;;;;;;;15.50;10.45;;;7.20;99.90;;;;;;4974002;28;20094;-74
2021/04/01 03:52:37;;;;;;;16.50;10.40;;;7.20;99.90;;;;;;4973915;28;20027;-74
2021/04/01 03:55:46;;;;;;;17.35;10.10;;;7.10;99.90;;;;;;4965313;28;20118;-75
2021/04/01 03:57:57;;;;;;;14.18;10.15;;;7.00;99.90;;;;;;4957690;28;20046;-75
2021/04/01 04:00:27;;;;;;;16.95;10.90;;;7.00;99.90;;;;;;4973832;28;20022;-73
2021/04/01 04:13:50;;;;;;;15.25;10.57;;;6.40;99.90;;;;;;4973045;28;20802;-74
2021/04/01 04:16:16;;;;;;;15.35;11.40;;;6.60;99.90;;;;;;4964953;28;20062;-73
2021/04/01 04:18:42;;;;;;;16.95;10.60;;;6.70;99.90;;;;;;4965803;28;20034;-74
2021/04/01 04:21:08;;;;;;;15.13;11.07;;;6.70;99.90;;;;;;4961523;28;20065;-74
2021/04/01 04:23:37;;;;;;;17.17;11.10;;;6.60;99.90;;;;;;4973511;28;20030;-75
2021/04/01 04:26:02;;;;;;;18.85;13.85;;;6.30;99.90;;;;;;4973414;28;20114;-75
2021/04/01 04:28:32;;;;;;;62.47;43.42;;;6.30;99.90;;;;;;4972049;28;20094;-75
2021/04/01 04:30:58;;;;;;;47.55;34.90;;;6.20;99.90;;;;;;4973433;28;20654;-75
2021/04/01 04:33:24;;;;;;;25.40;18.50;;;6.20;99.90;;;;;;4973267;28;20118;-74
2021/04/01 04:35:49;;;;;;;15.40;11.15;;;6.10;99.90;;;;;;4971987;28;20464;-74
2021/04/01 04:38:15;;;;;;;17.38;11.20;;;6.10;99.90;;;;;;4960091;28;20057;-75
2021/04/01 04:40:41;;;;;;;18.45;12.52;;;6.20;99.90;;;;;;4963986;28;20441;-74
2021/04/01 04:43:07;;;;;;;19.42;13.48;;;6.20;99.90;;;;;;4968416;28;20030;-73
2021/04/01 04:45:33;;;;;;;15.77;10.68;;;6.20;99.90;;;;;;4968420;28;20398;-73
2021/04/01 04:47:58;;;;;;;16.02;10.90;;;6.10;99.90;;;;;;4969368;28;20026;-73
2021/04/01 04:50:24;;;;;;;17.63;12.30;;;6.00;99.90;;;;;;4964107;28;20024;-73
2021/04/01 04:52:49;;;;;;;17.92;11.13;;;6.10;99.90;;;;;;4969068;28;20552;-73
2021/04/01 04:55:16;;;;;;;15.98;11.25;;;6.10;99.90;;;;;;4972791;28;20046;-73
2021/04/01 05:05:38;;;;;;;20.50;11.80;;;6.30;99.90;;;;;;4973111;28;20034;-73
2021/04/01 05:08:04;;;;;;;17.98;11.63;;;6.20;99.90;;;;;;4965820;28;20031;-74
2021/04/01 05:10:30;;;;;;;18.20;12.38;;;6.20;99.90;;;;;;4967476;28;20027;-75
2021/04/01 05:13:13;;;;;;;17.15;11.70;;;6.10;99.90;;;;;;4973019;28;20540;-75
2021/04/01 05:15:46;;;;;;;17.35;11.95;;;6.10;99.90;;;;;;4969779;28;20055;-74
2021/04/01 05:20:42;;;;;;;20.00;13.02;;;6.30;99.90;;;;;;4959814;28;20030;-73
2021/04/01 05:25:47;;;;;;;24.15;15.05;;;6.30;99.90;;;;;;4974111;28;20240;-73
2021/04/01 05:28:30;;;;;;;23.08;14.10;;;6.30;99.90;;;;;;4975447;28;20031;-73
2021/04/01 05:30:56;;;;;;;22.35;12.90;;;6.50;99.90;;;;;;4976691;28;20030;-73
2021/04/01 05:33:22;;;;;;;19.85;13.25;;;6.40;99.90;;;;;;4973384;28;20026;-73
2021/04/01 05:35:48;;;;;;;21.52;14.07;;;6.20;99.90;;;;;;4966358;28;20105;-73
2021/04/01 05:38:13;;;;;;;20.30;14.85;;;6.20;99.90;;;;;;4963295;28;20117;-73
2021/04/01 05:40:39;;;;;;;23.08;14.13;;;6.30;99.90;;;;;;4967384;28;20074;-73
2021/04/01 05:43:11;;;;;;;19.75;13.32;;;6.50;99.90;;;;;;4972800;28;20081;-73
2021/04/01 05:45:46;;;;;;;23.30;14.52;;;6.60;99.90;;;;;;4976110;28;20027;-73
2021/04/01 05:48:22;;;;;;;24.83;13.63;;;6.80;99.90;;;;;;4971507;28;20095;-73
2021/04/01 05:54:11;;;;;;;19.70;12.52;;;6.80;99.90;;;;;;4963128;28;20061;-73
2021/04/01 06:04:33;;;;;;;19.02;14.15;;;7.40;99.90;;;;;;4976817;28;20027;-73
2021/04/01 06:07:07;;;;;;;17.27;12.50;;;7.60;99.90;;;;;;4976096;28;20019;-73
2021/04/01 06:09:42;;;;;;;20.02;13.68;;;7.50;99.90;;;;;;4964086;28;20030;-73
2021/04/01 06:12:08;;;;;;;17.05;12.75;;;7.20;99.90;;;;;;4974736;28;20039;-74
2021/04/01 06:14:34;;;;;;;17.20;11.77;;;7.10;99.90;;;;;;4974347;28;20026;-72
2021/04/01 06:17:09;;;;;;;18.35;12.85;;;7.20;99.90;;;;;;4974609;28;20038;-73
2021/04/01 06:19:37;;;;;;;19.83;12.48;;;7.40;99.90;;;;;;4966357;28;20086;-73
2021/04/01 06:22:05;;;;;;;17.75;11.15;;;7.70;99.90;;;;;;4968253;28;20032;-73
2021/04/01 06:24:32;;;;;;;18.95;12.60;;;8.00;99.90;;;;;;4966250;28;20031;-73
2021/04/01 06:30:09;;;;;;;18.73;12.38;;;8.00;99.90;;;;;;4975718;28;20113;-73
2021/04/01 06:32:29;;;;;;;14.05;11.35;;;8.20;99.90;;;;;;4956344;28;20032;-73
2021/04/01 06:34:55;;;;;;;18.92;11.50;;;8.40;99.90;;;;;;4971440;28;20066;-72
2021/04/01 06:37:40;;;;;;;18.17;12.07;;;8.50;99.90;;;;;;4975094;28;20027;-72
2021/04/01 06:40:07;;;;;;;18.88;12.30;;;8.50;99.90;;;;;;4974207;28;20481;-73
2021/04/01 06:42:39;;;;;;;21.08;12.27;;;8.40;99.90;;;;;;4975368;28;20023;-73
2021/04/01 06:45:08;;;;;;;19.88;12.40;;;8.20;99.90;;;;;;4962158;28;20019;-72
2021/04/01 06:47:35;;;;;;;21.60;12.10;;;8.30;99.90;;;;;;4961313;28;20114;-74
2021/04/01 06:50:06;;;;;;;18.50;12.05;;;8.40;99.90;;;;;;4970953;28;20442;-74
2021/04/01 06:52:35;;;;;;;17.20;12.60;;;8.60;99.90;;;;;;4971064;28;20110;-75
2021/04/01 06:55:29;;;;;;;17.40;12.85;;;8.70;99.90;;;;;;4975262;28;20535;-73
2021/04/01 06:58:40;;;;;;;18.83;12.45;;;8.80;99.90;;;;;;4974656;28;20065;-73
2021/04/01 07:01:08;;;;;;;20.95;12.23;;;9.00;99.90;;;;;;4974675;28;20093;-74
2021/04/01 07:03:40;;;;;;;17.20;12.00;;;9.20;99.90;;;;;;4975043;28;20027;-73
2021/04/01 07:06:13;;;;;;;18.08;12.13;;;9.40;99.90;;;;;;4962160;28;20027;-72
2021/04/01 07:11:38;;;;;;;16.85;11.88;;;9.70;99.90;;;;;;4964647;28;20042;-73
2021/04/01 07:14:11;;;;;;;15.63;11.60;;;9.70;99.90;;;;;;4970551;28;20031;-73
2021/04/01 07:17:27;;;;;;;12.45;10.23;;;9.80;99.90;;;;;;4965975;28;20569;-73
2021/04/01 07:20:04;;;;;;;16.10;11.52;;;10.00;99.90;;;;;;4963817;28;20045;-73
2021/04/01 07:47:03;;;;;;;19.10;11.35;;;11.10;99.90;;;;;;4963258;28;20512;-73
2021/04/01 07:49:30;;;;;;;16.83;11.05;;;11.20;99.90;;;;;;4971607;28;20078;-74
2021/04/01 07:51:59;;;;;;;14.50;10.90;;;11.30;99.90;;;;;;4963889;28;20102;-73
2021/04/01 07:54:45;;;;;;;17.92;11.52;;;11.20;99.90;;;;;;4973737;28;20062;-72
2021/04/01 07:57:29;;;;;;;19.33;11.70;;;11.20;99.90;;;;;;4961814;28;20028;-73
2021/04/01 08:00:17;;;;;;;17.60;10.90;;;11.30;99.90;;;;;;4962521;28;20119;-73
2021/04/01 08:03:01;;;;;;;16.95;11.00;;;11.40;99.90;;;;;;4969489;28;20027;-73
2021/04/01 08:05:34;;;;;;;14.65;10.63;;;11.60;99.90;;;;;;4967611;28;20026;-72
2021/04/01 08:08:08;;;;;;;15.15;11.00;;;11.70;99.90;;;;;;4973750;28;20027;-73
2021/04/01 08:10:39;;;;;;;23.45;12.82;;;11.60;99.90;;;;;;4973735;28;20027;-73
2021/04/01 08:13:06;;;;;;;18.65;12.32;;;11.50;99.90;;;;;;4973810;28;20070;-73
2021/04/01 08:15:48;;;;;;;19.55;11.80;;;11.50;99.90;;;;;;4973331;28;20462;-73
2021/04/01 08:18:33;;;;;;;19.67;11.85;;;11.50;99.90;;;;;;4973519;28;20128;-72
2021/04/01 08:21:01;;;;;;;14.38;12.30;;;11.70;99.90;;;;;;4961620;28;20019;-73
2021/04/01 08:23:31;;;;;;;19.48;11.88;;;11.90;99.90;;;;;;4972418;28;20069;-72
2021/04/01 08:36:52;;;;;;;19.75;12.02;;;12.60;99.90;;;;;;4969009;28;20027;-73
2021/04/01 08:39:20;;;;;;;19.00;12.70;;;13.00;99.90;;;;;;4963960;28;20027;-73
2021/04/01 08:42:07;;;;;;;20.17;12.20;;;13.20;99.90;;;;;;4973697;28;20375;-73
2021/04/01 08:45:01;;;;;;;20.08;11.18;;;13.20;99.90;;;;;;4971674;28;20015;-72
2021/04/01 08:47:58;;;;;;;16.92;11.38;;;13.30;99.90;;;;;;4964108;28;20023;-73
2021/04/01 08:50:32;;;;;;;25.42;14.40;;;13.50;99.90;;;;;;4971940;28;20034;-73
2021/04/01 08:53:33;;;;;;;20.58;12.73;;;13.50;99.90;;;;;;4972924;28;20034;-73
2021/04/01 08:56:25;;;;;;;20.00;13.07;;;13.70;99.90;;;;;;4969353;28;20019;-73
2021/04/01 08:59:18;;;;;;;19.05;12.43;;;13.90;99.90;;;;;;4965325;28;20027;-72
2021/04/01 09:01:48;;;;;;;24.88;12.98;;;14.20;99.90;;;;;;4963087;28;20049;-73
2021/04/01 09:04:21;;;;;;;19.05;13.05;;;14.20;99.90;;;;;;4973043;28;20035;-73
2021/04/01 09:06:48;;;;;;;21.02;12.65;;;14.10;99.90;;;;;;4971746;28;20027;-73
2021/04/01 09:09:33;;;;;;;19.55;12.68;;;14.30;99.90;;;;;;4972737;28;20030;-73
2021/04/01 09:12:12;;;;;;;16.85;11.98;;;14.50;99.90;;;;;;4972838;28;20023;-72
2021/04/01 09:14:41;;;;;;;20.13;12.23;;;14.80;99.90;;;;;;4961087;28;20026;-73
2021/04/01 09:19:35;;;;;;;17.45;12.52;;;15.10;99.90;;;;;;4973139;28;20034;-73
2021/04/01 09:22:02;;;;;;;21.58;12.73;;;15.10;99.90;;;;;;4972703;28;20022;-73
2021/04/01 09:24:33;;;;;;;24.65;13.65;;;15.20;99.90;;;;;;4972301;28;20031;-73
2021/04/01 09:26:59;;;;;;;21.33;12.68;;;15.40;99.90;;;;;;4971495;28;20046;-73
2021/04/01 09:29:25;;;;;;;20.50;13.73;;;15.30;99.90;;;;;;4972736;28;20023;-73
2021/04/01 09:31:58;;;;;;;26.88;13.82;;;15.50;99.90;;;;;;4972049;28;20508;-74
2021/04/01 09:34:24;;;;;;;20.80;13.38;;;15.50;99.90;;;;;;4972431;28;20035;-74
2021/04/01 09:36:50;;;;;;;22.80;13.55;;;15.70;99.90;;;;;;4972503;28;20062;-73
2021/04/01 09:41:49;;;;;;;21.55;13.07;;;16.20;99.90;;;;;;4959740;28;20027;-72
2021/04/01 09:44:15;;;;;;;23.17;13.55;;;16.20;99.90;;;;;;4972341;28;20489;-73
2021/04/01 09:47:06;;;;;;;25.40;14.05;;;16.30;99.90;;;;;;4972345;28;20027;-74
2021/04/01 09:49:59;;;;;;;27.17;14.85;;;16.40;99.90;;;;;;4969070;28;20105;-73
2021/04/01 09:52:27;;;;;;;24.83;17.35;;;16.50;99.90;;;;;;4971892;28;20051;-73
2021/04/01 09:55:06;;;;;;;22.55;14.27;;;16.80;99.90;;;;;;4970958;28;20118;-73
2021/04/01 09:57:46;;;;;;;25.50;16.30;;;17.00;99.90;;;;;;4968685;28;20027;-74
2021/04/01 10:00:22;;;;;;;29.92;15.82;;;17.00;99.90;;;;;;4970374;28;20097;-73
2021/04/01 10:03:00;;;;;;;31.65;17.75;;;17.00;99.90;;;;;;4972460;28;20093;-72
2021/04/01 10:05:26;;;;;;;28.92;16.25;;;17.10;99.90;;;;;;4971429;28;20392;-72
2021/04/01 10:07:56;;;;;;;26.73;15.88;;;17.30;99.90;;;;;;4960224;28;20102;-72
2021/04/01 10:10:38;;;;;;;29.88;15.73;;;17.40;99.90;;;;;;4972647;28;20481;-72
2021/04/01 10:13:18;;;;;;;24.17;15.73;;;17.50;99.90;;;;;;4974559;28;20027;-73
2021/04/01 10:15:43;;;;;;;26.60;15.10;;;17.70;99.90;;;;;;4970671;28;20074;-73
2021/04/01 10:18:13;;;;;;;25.40;15.40;;;17.90;99.90;;;;;;4967904;28;20026;-73
2021/04/01 10:20:39;;;;;;;27.05;14.95;;;17.90;99.90;;;;;;4975634;28;20022;-73
2021/04/01 10:23:06;;;;;;;41.03;26.33;;;17.90;99.90;;;;;;4975654;28;20539;-73
2021/04/01 10:25:37;;;;;;;28.38;16.05;;;17.80;99.90;;;;;;4975152;28;20081;-73
2021/04/01 10:28:16;;;;;;;27.33;17.67;;;17.80;99.90;;;;;;4975628;28;20070;-73
2021/04/01 10:30:45;;;;;;;25.35;16.20;;;17.80;99.90;;;;;;4975528;28;20054;-73
2021/04/01 10:33:23;;;;;;;29.15;16.90;;;18.00;99.90;;;;;;4962502;28;20116;-72
2021/04/01 10:35:52;;;;;;;38.53;23.17;;;17.90;99.90;;;;;;4973956;28;20027;-74
2021/04/01 10:38:21;;;;;;;37.17;22.35;;;17.90;99.90;;;;;;4962228;28;20027;-73
2021/04/01 10:40:48;;;;;;;30.33;18.02;;;17.70;99.90;;;;;;4964506;28;20085;-73
2021/04/01 10:43:18;;;;;;;30.38;16.10;;;17.70;99.90;;;;;;4971982;28;20022;-74
2021/04/01 10:45:46;;;;;;;27.58;15.65;;;17.70;99.90;;;;;;4974895;28;20034;-74
2021/04/01 10:48:43;;;;;;;27.27;16.48;;;17.80;99.90;;;;;;4975067;28;20347;-73
2021/04/01 10:51:09;;;;;;;27.08;16.35;;;17.70;99.90;;;;;;4975036;28;20496;-74
2021/04/01 10:53:41;;;;;;;23.63;15.65;;;17.70;99.90;;;;;;4974871;28;20034;-74
2021/04/01 10:56:09;;;;;;;36.35;17.75;;;17.60;99.90;;;;;;4974878;28;20022;-73
2021/04/01 10:58:35;;;;;;;27.40;16.17;;;17.60;99.90;;;;;;4974527;28;20035;-73
2021/04/01 11:01:04;;;;;;;27.08;16.30;;;17.60;99.90;;;;;;4973387;28;20106;-73
2021/04/01 11:03:36;;;;;;;31.13;17.70;;;17.50;99.90;;;;;;4967747;28;20023;-71
2021/04/01 11:06:04;;;;;;;28.48;17.67;;;17.60;99.90;;;;;;4974460;28;20070;-73
2021/04/01 11:08:39;;;;;;;28.45;16.70;;;17.80;99.90;;;;;;4971564;28;20469;-73
2021/04/01 11:11:07;;;;;;;32.10;17.17;;;18.10;99.90;;;;;;4973567;28;20050;-74
2021/04/01 11:13:38;;;;;;;26.17;16.45;;;18.30;99.90;;;;;;4970816;28;20019;-73
2021/04/01 11:16:09;;;;;;;30.10;16.45;;;18.30;99.90;;;;;;4974192;28;20037;-72
2021/04/01 11:18:43;;;;;;;24.33;15.57;;;18.40;99.90;;;;;;4971383;28;20046;-74
2021/04/01 11:21:11;;;;;;;30.48;17.02;;;18.60;99.90;;;;;;4974136;28;20019;-73
2021/04/01 11:23:36;;;;;;;26.02;16.73;;;18.70;99.90;;;;;;4970824;28;20114;-73
2021/04/01 11:26:04;;;;;;;32.35;18.40;;;18.80;99.90;;;;;;4973909;28;20061;-72
2021/04/01 11:28:51;;;;;;;28.30;17.65;;;19.00;99.60;;;;;;4974094;28;20023;-74
2021/04/01 11:31:28;;;;;;;27.85;17.45;;;19.00;98.20;;;;;;4967197;28;20027;-73
2021/04/01 11:33:59;;;;;;;27.13;17.50;;;19.10;99.00;;;;;;4972481;28;20043;-74
2021/04/01 11:36:27;;;;;;;28.50;17.27;;;19.00;98.00;;;;;;4973513;28;20049;-74
2021/04/01 11:38:58;;;;;;;28.10;18.50;;;19.20;98.90;;;;;;4973845;28;20023;-74
2021/04/01 11:41:26;;;;;;;29.10;18.25;;;19.30;97.40;;;;;;4973856;28;20568;-74
2021/04/01 11:43:57;;;;;;;27.02;17.42;;;19.50;97.70;;;;;;4973645;28;20519;-74
2021/04/01 11:46:25;;;;;;;28.40;17.98;;;19.80;97.50;;;;;;4974082;28;20029;-73
2021/04/01 11:48:51;;;;;;;29.48;18.38;;;19.80;96.10;;;;;;4973978;28;20134;-73
2021/04/01 11:51:25;;;;;;;28.20;18.27;;;19.90;96.40;;;;;;4959819;28;20029;-74
2021/04/01 11:53:51;;;;;;;31.77;19.45;;;20.00;98.40;;;;;;4972510;28;20035;-73
2021/04/01 11:56:18;;;;;;;27.65;17.80;;;20.10;95.80;;;;;;4973889;28;20374;-73
2021/04/01 11:58:44;;;;;;;29.73;20.58;;;20.40;95.30;;;;;;4973811;28;20041;-73
2021/04/01 12:01:13;;;;;;;31.33;19.48;;;20.50;94.00;;;;;;4973811;28;20396;-74
2021/04/01 12:06:07;;;;;;;29.23;19.73;;;21.10;91.70;;;;;;4973744;28;20058;-74
2021/04/01 12:08:33;;;;;;;34.17;20.85;;;22.10;91.60;;;;;;4973555;28;20022;-73
2021/04/01 12:10:58;;;;;;;28.33;19.27;;;22.20;90.60;;;;;;4974112;28;20034;-72
2021/04/01 12:13:25;;;;;;;31.90;21.00;;;22.30;90.90;;;;;;4972890;28;20033;-72
2021/04/01 12:15:51;;;;;;;29.45;20.70;;;22.50;88.00;;;;;;4970903;28;20469;-72
2021/04/01 12:18:17;;;;;;;28.25;20.02;;;22.80;89.70;;;;;;4973373;28;20045;-72
2021/04/01 12:20:43;;;;;;;29.73;19.98;;;23.20;87.90;;;;;;4973850;28;20102;-72
2021/04/01 12:23:11;;;;;;;30.92;20.60;;;22.90;90.20;;;;;;4973557;28;20110;-73
2021/04/01 12:25:37;;;;;;;30.08;19.33;;;23.10;83.60;;;;;;4971671;28;20114;-73
2021/04/01 12:28:03;;;;;;;34.42;21.75;;;23.70;87.50;;;;;;4973444;28;20107;-73
2021/04/01 12:30:32;;;;;;;30.55;21.38;;;24.70;83.30;;;;;;4973299;28;20105;-72
2021/04/01 12:33:27;;;;;;;32.75;21.98;;;24.10;81.30;;;;;;4973123;28;20027;-73
2021/04/01 12:35:55;;;;;;;34.92;22.80;;;23.60;82.20;;;;;;4951582;28;20057;-72
2021/04/01 12:38:29;;;;;;;31.15;21.27;;;24.40;79.20;;;;;;4971775;28;20039;-73
2021/04/01 12:40:56;;;;;;;32.88;21.92;;;23.50;85.00;;;;;;4972088;28;20370;-73
2021/04/01 12:43:29;;;;;;;34.20;22.10;;;23.40;82.60;;;;;;4958985;28;20047;-72
2021/04/01 12:45:56;;;;;;;32.88;21.80;;;23.40;82.50;;;;;;4973302;28;20030;-73
2021/04/01 12:48:22;;;;;;;37.58;23.17;;;23.70;87.50;;;;;;4952510;28;20081;-72
2021/04/01 12:50:51;;;;;;;33.58;21.98;;;23.30;84.30;;;;;;4966605;28;20113;-73
2021/04/01 12:53:20;;;;;;;31.92;22.50;;;23.60;82.20;;;;;;4973066;28;20031;-72
2021/04/01 12:55:54;;;;;;;33.80;22.08;;;24.60;76.50;;;;;;4972873;28;20023;-73
2021/04/01 12:58:44;;;;;;;29.75;21.73;;;24.70;78.70;;;;;;4973007;28;20114;-73
2021/04/01 13:01:32;;;;;;;28.25;22.67;;;25.10;79.50;;;;;;4973025;28;20027;-73
2021/04/01 13:04:01;;;;;;;29.85;22.52;;;25.70;76.20;;;;;;4972605;28;20485;-73
2021/04/01 13:06:41;;;;;;;31.90;24.50;;;24.70;72.30;;;;;;4968208;28;20402;-72
2021/04/01 13:12:11;;;;;;;32.00;22.65;;;26.70;72.90;;;;;;4971859;28;20041;-73
2021/04/01 13:14:38;;;;;;;31.23;23.95;;;25.80;65.70;;;;;;4972560;28;20465;-72
2021/04/01 13:17:04;;;;;;;29.33;21.90;;;26.10;68.00;;;;;;4971615;28;20115;-73
2021/04/01 13:19:29;;;;;;;28.58;22.48;;;25.90;65.90;;;;;;4972644;28;20023;-72
2021/04/01 13:22:22;;;;;;;31.45;24.60;;;26.40;66.40;;;;;;4972689;28;20066;-72
2021/04/01 13:25:22;;;;;;;29.80;21.65;;;25.80;63.60;;;;;;4972174;28;20093;-73
2021/04/01 13:27:29;;;;;;;30.98;22.85;;;26.00;67.30;;;;;;4963381;28;20081;-72
2021/04/01 13:29:59;;;;;;;36.30;23.58;;;26.80;63.60;;;;;;4972548;28;20110;-72
2021/04/01 13:32:39;;;;;;;27.67;22.50;;;25.80;65.00;;;;;;4964349;28;20115;-73
2021/04/01 13:35:08;;;;;;;28.27;22.15;;;25.70;64.80;;;;;;4970204;28;20023;-73
2021/04/01 13:37:39;;;;;;;33.53;23.73;;;26.10;65.70;;;;;;4972650;28;20027;-72
2021/04/01 13:40:13;;;;;;;33.58;23.80;;;27.00;64.60;;;;;;4972560;28;20022;-73
2021/04/01 13:42:42;;;;;;;31.70;23.17;;;26.40;63.00;;;;;;4972493;28;20508;-73
2021/04/01 13:45:12;;;;;;;24.65;16.83;;;27.10;60.10;;;;;;4972293;28;20027;-72
2021/04/01 13:47:42;;;;;;;30.65;16.52;;;26.50;58.00;;;;;;4974991;28;20030;-73
2021/04/01 13:50:10;;;;;;;21.55;16.02;;;26.10;55.40;;;;;;4975064;28;20023;-73
2021/04/01 13:52:41;;;;;;;20.20;15.00;;;26.30;55.70;;;;;;4974869;28;20246;-72
2021/04/01 14:10:59;;;;;;;15.60;11.13;;;25.30;55.80;;;;;;4975932;28;20120;-73
2021/04/01 14:13:27;;;;;;;17.42;12.77;;;25.50;54.30;;;;;;4974419;28;20082;-72
2021/04/01 14:15:53;;;;;;;14.65;10.68;;;26.20;54.50;;;;;;4975638;28;20039;-72
2021/04/01 14:18:19;;;;;;;16.30;9.60;;;26.10;53.10;;;;;;4975617;28;20041;-73
2021/04/01 14:20:45;;;;;;;15.15;10.27;;;27.30;49.20;;;;;;4975420;28;20385;-73
2021/04/01 14:23:16;;;;;;;20.13;13.70;;;27.00;51.70;;;;;;4974361;28;20119;-73
2021/04/01 14:25:45;;;;;;;22.77;13.25;;;27.80;54.00;;;;;;4975250;28;20134;-73
2021/04/01 14:28:10;;;;;;;21.95;13.15;;;27.60;53.60;;;;;;4975688;28;20648;-73
2021/04/01 14:30:36;;;;;;;18.35;12.07;;;26.70;55.00;;;;;;4970970;28;20087;-73
2021/04/01 14:33:03;;;;;;;19.95;11.98;;;26.60;54.00;;;;;;4969413;28;20396;-73